Higden, Arkansas
Current Conditions -  °F | °C
As of 2:15 PM on Sunday 25 Jan 2015 (Local Time) from KCCA Reporting Station
Overcast Overcast  
Wind Chill: 43°   Ceiling: 4400
Heat Index: 46°   Visibility: 7mi
Dew Point: 41°   Wind: 7mph
Humidity: 81%   Direction: 320°NW
Pressure: 29.8"   Gusts: NA
Location:  35.57°N, 92.2°W
Report Text: KCCA 252015Z AUTO 32006KT 7SM FEW027 SCT037 OVC044 08/05 A2980 RMK AO2
Loading
Personal Weather Stations






























Interactive Weather Map New forecast layout! Learn more

10-Day Weather Forecast

Advertisements
Track Severe Weather on mobile